Lanely, Texas
Current Conditions -  °F | °C
As of 4:15 PM on Saturday 20 Dec 2014 (Local Time) from KLXY Reporting Station
Overcast Overcast  
Wind Chill: 50°   Ceiling: 1200
Heat Index: 50°   Visibility: 10mi
Dew Point: 46°   Wind: 5mph
Humidity: 85%   Direction: 10°N
Pressure: 30.17"   Gusts: NA
Location:  31.4723°N, 96.0615°W
Report Text: KLXY 202215Z AUTO 01004KT 10SM OVC012 10/08 A3017 RMK AO2 T01000076
Loading
Personal Weather Stations






























Interactive Weather Map New forecast layout! Learn more

10-Day Weather Forecast

Advertisements
Track Severe Weather on mobile